Aérodrome :
LOGIN :

S'inscrire | Disclaimer

   EN    FR    IT 

 










Légende :    VFR   VFR Marginal   IFR   IFR Intensif   IFR Très Intensif
Visi : 
Plafond : 
>= 8 km
>= 3000ft
5 à 8 km
1000 à 3000 ft
1500m à 5 km
500 à 1000 ft
800 à 1500m
200 à 500 ft
< 800m
< 200 ft
Symboles :   Orages  Brouillard  Fortes neiges  Fortes précipitations  Vent > 20 kt
SIGMETs :   Divers  Orages  Givrage  Turbulence  Onde Orograph.  Cendres Volcan.







- Altitude de l'aérodrome : 147 ft
- Code IATA : DUS


EDDL - Düsseldorf Int.

DERNIER METAR :
  • 221420Z 06015KT 9999 FEW044 04/M06 Q1022 NOSIG

METARs EXPIRÉS :
  • 221350Z 07014KT 9999 FEW044 05/M05 Q1022 NOSIG
  • 221320Z 06015KT 9999 FEW044 04/M06 Q1022 NOSIG
  • 221250Z 07016KT 9999 FEW044 04/M06 Q1023 NOSIG
  • 221220Z 05015KT 9999 FEW042 04/M07 Q1023 NOSIG
  • 221150Z 06014KT 9999 FEW040 04/M05 Q1023 NOSIG

TAF TAF EDDL
Valide du 22 à 12h jusqu'au 23 à 18h UTC


221100Z 2212/2318 05013G23KT CAVOK
BECMG 2216/2219 05008KT
BECMG 2308/2311 05013KT
Pas de NOTAMs connus pour ce terrain.



MET'MAP, la Météo Aéronautique d'un coup d'oeil ! - Copyright ORBIFLY Décembre 2007 - Disclaimer

ORBIFLY MET'MAP TEAM :

Programmation & Développement : Alexandra Zaïnal
Conception & Développement : Baudouin d'Aumeries
Co-Programmation & Développement : Marc-Olivier Méhu
Soutien technique & logistique : Manuel Goepfert

Contact : metmap@orbifly.com




SOURCES & CREDITS :

   NOAA